sensor_id;sensor_type;location;lat;lon;timestamp;pressure;altitude;pressure_sealevel;temperature;humidity
49122;BME280;35529;44.342;25.944;2022-07-31T00:00:39;100240.56;;;25.16;65.14
49122;BME280;35529;44.342;25.944;2022-07-31T00:03:06;100248.38;;;25.03;65.71
49122;BME280;35529;44.342;25.944;2022-07-31T00:05:32;100244.06;;;25.02;65.98
49122;BME280;35529;44.342;25.944;2022-07-31T00:07:58;100246.78;;;25.02;66.01
49122;BME280;35529;44.342;25.944;2022-07-31T00:10:25;100245.34;;;25.05;65.93
49122;BME280;35529;44.342;25.944;2022-07-31T00:12:51;100242.63;;;25.05;65.82
49122;BME280;35529;44.342;25.944;2022-07-31T00:15:17;100249.38;;;25.07;65.86
49122;BME280;35529;44.342;25.944;2022-07-31T00:17:44;100251.00;;;25.08;65.59
49122;BME280;35529;44.342;25.944;2022-07-31T00:20:11;100249.50;;;25.16;65.17
49122;BME280;35529;44.342;25.944;2022-07-31T00:22:38;100250.50;;;25.20;64.88
49122;BME280;35529;44.342;25.944;2022-07-31T00:25:04;100260.88;;;25.32;64.51
49122;BME280;35529;44.342;25.944;2022-07-31T00:27:31;100254.25;;;25.38;64.30
49122;BME280;35529;44.342;25.944;2022-07-31T00:29:57;100251.63;;;25.33;64.61
49122;BME280;35529;44.342;25.944;2022-07-31T00:32:23;100244.06;;;25.30;64.67
49122;BME280;35529;44.342;25.944;2022-07-31T00:34:50;100239.44;;;25.31;64.61
49122;BME280;35529;44.342;25.944;2022-07-31T00:37:16;100243.38;;;25.38;64.19
49122;BME280;35529;44.342;25.944;2022-07-31T00:39:42;100247.53;;;25.36;64.60
49122;BME280;35529;44.342;25.944;2022-07-31T00:42:19;100251.13;;;25.31;64.73
49122;BME280;35529;44.342;25.944;2022-07-31T00:44:45;100253.03;;;25.31;64.55
49122;BME280;35529;44.342;25.944;2022-07-31T00:47:11;100255.69;;;25.36;64.66
49122;BME280;35529;44.342;25.944;2022-07-31T00:49:38;100252.84;;;25.41;64.38
49122;BME280;35529;44.342;25.944;2022-07-31T00:52:04;100257.78;;;25.53;64.62
49122;BME280;35529;44.342;25.944;2022-07-31T00:54:31;100259.09;;;25.55;65.02
49122;BME280;35529;44.342;25.944;2022-07-31T00:56:57;100256.16;;;25.52;65.59
49122;BME280;35529;44.342;25.944;2022-07-31T00:59:23;100258.50;;;25.45;65.83
49122;BME280;35529;44.342;25.944;2022-07-31T01:01:49;100258.69;;;25.34;66.15
49122;BME280;35529;44.342;25.944;2022-07-31T01:04:16;100267.94;;;25.33;66.09
49122;BME280;35529;44.342;25.944;2022-07-31T01:06:44;100254.63;;;25.18;66.56
49122;BME280;35529;44.342;25.944;2022-07-31T01:09:10;100253.72;;;25.08;66.89
49122;BME280;35529;44.342;25.944;2022-07-31T01:14:11;100269.09;;;24.99;67.43
49122;BME280;35529;44.342;25.944;2022-07-31T01:16:39;100258.41;;;24.89;67.53
49122;BME280;35529;44.342;25.944;2022-07-31T01:19:14;100262.56;;;24.67;67.95
49122;BME280;35529;44.342;25.944;2022-07-31T01:21:48;100255.97;;;24.54;68.47
49122;BME280;35529;44.342;25.944;2022-07-31T01:27:05;100261.47;;;24.30;70.57
49122;BME280;35529;44.342;25.944;2022-07-31T01:29:45;100258.97;;;24.15;71.56
49122;BME280;35529;44.342;25.944;2022-07-31T01:32:24;100252.16;;;23.98;72.39
49122;BME280;35529;44.342;25.944;2022-07-31T01:34:54;100249.94;;;24.00;72.83
49122;BME280;35529;44.342;25.944;2022-07-31T01:40:27;100246.47;;;23.75;74.81
49122;BME280;35529;44.342;25.944;2022-07-31T01:43:07;100242.78;;;23.66;75.32
49122;BME280;35529;44.342;25.944;2022-07-31T01:45:34;100247.16;;;23.62;75.69
49122;BME280;35529;44.342;25.944;2022-07-31T01:48:02;100249.88;;;23.62;75.93
49122;BME280;35529;44.342;25.944;2022-07-31T01:50:29;100257.13;;;23.67;75.70
49122;BME280;35529;44.342;25.944;2022-07-31T01:52:56;100254.22;;;23.63;75.74
49122;BME280;35529;44.342;25.944;2022-07-31T01:55:24;100248.38;;;23.51;76.31
49122;BME280;35529;44.342;25.944;2022-07-31T01:57:50;100228.44;;;23.41;76.74
49122;BME280;35529;44.342;25.944;2022-07-31T02:00:17;100241.13;;;23.46;77.16
49122;BME280;35529;44.342;25.944;2022-07-31T02:02:43;100241.97;;;23.41;77.38
49122;BME280;35529;44.342;25.944;2022-07-31T02:05:12;100235.69;;;23.46;77.26
49122;BME280;35529;44.342;25.944;2022-07-31T02:07:39;100235.69;;;23.46;77.35
49122;BME280;35529;44.342;25.944;2022-07-31T02:10:09;100224.22;;;23.54;76.98
49122;BME280;35529;44.342;25.944;2022-07-31T02:12:36;100224.91;;;23.65;76.23
49122;BME280;35529;44.342;25.944;2022-07-31T02:15:06;100221.88;;;23.67;76.35
49122;BME280;35529;44.342;25.944;2022-07-31T02:17:33;100222.53;;;23.58;76.67
49122;BME280;35529;44.342;25.944;2022-07-31T02:20:00;100220.06;;;23.62;76.45
49122;BME280;35529;44.342;25.944;2022-07-31T02:22:26;100221.22;;;23.56;76.79
49122;BME280;35529;44.342;25.944;2022-07-31T02:24:54;100219.84;;;23.58;76.80
49122;BME280;35529;44.342;25.944;2022-07-31T02:27:20;100224.50;;;23.53;76.83
49122;BME280;35529;44.342;25.944;2022-07-31T02:29:48;100218.06;;;23.49;77.03
49122;BME280;35529;44.342;25.944;2022-07-31T02:32:14;100213.78;;;23.42;77.18
49122;BME280;35529;44.342;25.944;2022-07-31T02:34:42;100214.38;;;23.39;77.34
49122;BME280;35529;44.342;25.944;2022-07-31T02:37:09;100212.31;;;23.31;78.09
49122;BME280;35529;44.342;25.944;2022-07-31T02:39:36;100209.69;;;23.21;78.60
49122;BME280;35529;44.342;25.944;2022-07-31T02:42:03;100210.31;;;23.13;78.56
49122;BME280;35529;44.342;25.944;2022-07-31T02:44:30;100215.16;;;23.16;78.51
49122;BME280;35529;44.342;25.944;2022-07-31T02:46:56;100223.31;;;23.16;78.44
49122;BME280;35529;44.342;25.944;2022-07-31T02:49:24;100222.75;;;23.19;78.05
49122;BME280;35529;44.342;25.944;2022-07-31T02:51:50;100218.44;;;23.13;78.25
49122;BME280;35529;44.342;25.944;2022-07-31T02:54:17;100227.97;;;23.05;78.58
49122;BME280;35529;44.342;25.944;2022-07-31T02:56:43;100224.00;;;22.97;78.96
49122;BME280;35529;44.342;25.944;2022-07-31T02:59:11;100228.19;;;22.84;79.54
49122;BME280;35529;44.342;25.944;2022-07-31T03:01:37;100236.59;;;22.83;79.86
49122;BME280;35529;44.342;25.944;2022-07-31T03:04:03;100233.59;;;22.84;80.21
49122;BME280;35529;44.342;25.944;2022-07-31T03:06:29;100231.22;;;22.77;80.55
49122;BME280;35529;44.342;25.944;2022-07-31T03:08:55;100244.34;;;22.65;81.01
49122;BME280;35529;44.342;25.944;2022-07-31T03:11:22;100230.88;;;22.55;81.62
49122;BME280;35529;44.342;25.944;2022-07-31T03:13:48;100240.63;;;22.56;81.99
49122;BME280;35529;44.342;25.944;2022-07-31T03:16:14;100241.09;;;22.63;81.51
49122;BME280;35529;44.342;25.944;2022-07-31T03:18:41;100235.19;;;22.56;81.90
49122;BME280;35529;44.342;25.944;2022-07-31T03:21:08;100244.97;;;22.52;82.50
49122;BME280;35529;44.342;25.944;2022-07-31T03:23:35;100244.91;;;22.57;82.35
49122;BME280;35529;44.342;25.944;2022-07-31T03:26:01;100244.34;;;22.65;81.96
49122;BME280;35529;44.342;25.944;2022-07-31T03:28:28;100236.41;;;22.74;81.65
49122;BME280;35529;44.342;25.944;2022-07-31T03:30:54;100239.31;;;22.83;80.70
49122;BME280;35529;44.342;25.944;2022-07-31T03:33:21;100254.69;;;22.87;80.33
49122;BME280;35529;44.342;25.944;2022-07-31T03:35:48;100246.53;;;22.92;80.06
49122;BME280;35529;44.342;25.944;2022-07-31T03:38:14;100242.91;;;23.02;80.06
49122;BME280;35529;44.342;25.944;2022-07-31T03:40:40;100256.88;;;23.15;79.19
49122;BME280;35529;44.342;25.944;2022-07-31T03:43:07;100258.50;;;23.16;79.13
49122;BME280;35529;44.342;25.944;2022-07-31T03:45:33;100253.56;;;23.23;78.66
49122;BME280;35529;44.342;25.944;2022-07-31T03:48:01;100256.69;;;23.35;78.19
49122;BME280;35529;44.342;25.944;2022-07-31T03:50:27;100251.63;;;23.53;77.34
49122;BME280;35529;44.342;25.944;2022-07-31T03:52:54;100258.50;;;23.64;76.67
49122;BME280;35529;44.342;25.944;2022-07-31T03:55:21;100261.09;;;23.74;76.17
49122;BME280;35529;44.342;25.944;2022-07-31T03:57:47;100260.16;;;23.84;75.30
49122;BME280;35529;44.342;25.944;2022-07-31T04:00:14;100262.72;;;24.00;74.52
49122;BME280;35529;44.342;25.944;2022-07-31T04:02:40;100267.13;;;24.15;73.58
49122;BME280;35529;44.342;25.944;2022-07-31T04:05:06;100267.25;;;24.04;73.71
49122;BME280;35529;44.342;25.944;2022-07-31T04:07:33;100271.44;;;23.97;74.15
49122;BME280;35529;44.342;25.944;2022-07-31T04:09:59;100266.81;;;23.97;74.08
49122;BME280;35529;44.342;25.944;2022-07-31T04:12:25;100258.38;;;23.99;73.99
49122;BME280;35529;44.342;25.944;2022-07-31T04:14:51;100258.19;;;24.14;73.41
49122;BME280;35529;44.342;25.944;2022-07-31T04:17:17;100259.63;;;24.25;72.47
49122;BME280;35529;44.342;25.944;2022-07-31T04:19:43;100258.31;;;24.23;72.22
49122;BME280;35529;44.342;25.944;2022-07-31T04:22:09;100263.25;;;24.21;72.45
49122;BME280;35529;44.342;25.944;2022-07-31T04:24:36;100261.69;;;24.15;72.58
49122;BME280;35529;44.342;25.944;2022-07-31T04:27:02;100249.16;;;24.19;72.48
49122;BME280;35529;44.342;25.944;2022-07-31T04:29:29;100255.53;;;24.28;72.27
49122;BME280;35529;44.342;25.944;2022-07-31T04:31:55;100248.75;;;24.44;71.61
49122;BME280;35529;44.342;25.944;2022-07-31T04:34:21;100247.53;;;24.37;71.83
49122;BME280;35529;44.342;25.944;2022-07-31T04:36:48;100251.63;;;24.53;71.47
49122;BME280;35529;44.342;25.944;2022-07-31T04:39:14;100237.75;;;24.55;71.16
49122;BME280;35529;44.342;25.944;2022-07-31T04:41:40;100257.28;;;24.57;71.25
49122;BME280;35529;44.342;25.944;2022-07-31T04:44:06;100261.75;;;24.67;70.58
49122;BME280;35529;44.342;25.944;2022-07-31T04:46:32;100265.09;;;24.77;70.07
49122;BME280;35529;44.342;25.944;2022-07-31T04:48:58;100260.59;;;24.73;69.94
49122;BME280;35529;44.342;25.944;2022-07-31T04:51:24;100265.72;;;24.74;70.11
49122;BME280;35529;44.342;25.944;2022-07-31T04:53:50;100264.41;;;24.72;70.09
49122;BME280;35529;44.342;25.944;2022-07-31T04:56:17;100266.28;;;24.71;70.06
49122;BME280;35529;44.342;25.944;2022-07-31T04:58:59;100266.66;;;24.65;70.44
49122;BME280;35529;44.342;25.944;2022-07-31T05:01:26;100269.81;;;24.34;71.32
49122;BME280;35529;44.342;25.944;2022-07-31T05:03:52;100273.66;;;24.33;71.80
49122;BME280;35529;44.342;25.944;2022-07-31T05:06:18;100273.94;;;24.31;71.94
49122;BME280;35529;44.342;25.944;2022-07-31T05:08:44;100275.63;;;24.27;72.13
49122;BME280;35529;44.342;25.944;2022-07-31T05:11:10;100273.44;;;24.29;72.06
49122;BME280;35529;44.342;25.944;2022-07-31T05:13:50;100278.84;;;24.29;72.41
49122;BME280;35529;44.342;25.944;2022-07-31T05:16:16;100279.44;;;24.45;71.74
49122;BME280;35529;44.342;25.944;2022-07-31T05:18:43;100286.31;;;24.56;71.65
49122;BME280;35529;44.342;25.944;2022-07-31T05:21:10;100281.72;;;24.57;71.55
49122;BME280;35529;44.342;25.944;2022-07-31T05:23:37;100277.75;;;24.68;70.95
49122;BME280;35529;44.342;25.944;2022-07-31T05:26:03;100266.75;;;24.59;70.91
49122;BME280;35529;44.342;25.944;2022-07-31T05:28:30;100274.66;;;24.56;71.24
49122;BME280;35529;44.342;25.944;2022-07-31T05:30:56;100274.44;;;24.71;70.67
49122;BME280;35529;44.342;25.944;2022-07-31T05:33:22;100272.66;;;24.81;70.12
49122;BME280;35529;44.342;25.944;2022-07-31T05:35:48;100281.25;;;24.88;69.74
49122;BME280;35529;44.342;25.944;2022-07-31T05:38:14;100283.66;;;24.89;69.51
49122;BME280;35529;44.342;25.944;2022-07-31T05:40:40;100284.75;;;24.88;69.67
49122;BME280;35529;44.342;25.944;2022-07-31T05:43:07;100283.03;;;24.92;69.67
49122;BME280;35529;44.342;25.944;2022-07-31T05:45:33;100286.41;;;24.70;70.62
49122;BME280;35529;44.342;25.944;2022-07-31T05:47:59;100275.03;;;24.68;71.12
49122;BME280;35529;44.342;25.944;2022-07-31T05:50:25;100279.44;;;24.64;71.14
49122;BME280;35529;44.342;25.944;2022-07-31T05:52:51;100276.81;;;24.40;72.42
49122;BME280;35529;44.342;25.944;2022-07-31T05:55:17;100272.25;;;24.54;72.00
49122;BME280;35529;44.342;25.944;2022-07-31T05:57:43;100271.22;;;24.69;71.49
49122;BME280;35529;44.342;25.944;2022-07-31T06:00:09;100279.28;;;24.74;71.33
49122;BME280;35529;44.342;25.944;2022-07-31T06:02:36;100279.97;;;24.66;71.36
49122;BME280;35529;44.342;25.944;2022-07-31T06:05:02;100277.88;;;24.58;71.86
49122;BME280;35529;44.342;25.944;2022-07-31T06:07:28;100288.53;;;24.73;71.22
49122;BME280;35529;44.342;25.944;2022-07-31T06:09:54;100279.41;;;24.83;70.96
49122;BME280;35529;44.342;25.944;2022-07-31T06:12:20;100286.06;;;24.91;70.98
49122;BME280;35529;44.342;25.944;2022-07-31T06:14:48;100284.16;;;24.91;70.64
49122;BME280;35529;44.342;25.944;2022-07-31T06:17:14;100284.16;;;24.91;70.74
49122;BME280;35529;44.342;25.944;2022-07-31T06:19:40;100281.56;;;25.00;70.08
49122;BME280;35529;44.342;25.944;2022-07-31T06:22:06;100293.13;;;24.92;70.40
49122;BME280;35529;44.342;25.944;2022-07-31T06:24:32;100280.88;;;25.08;69.71
49122;BME280;35529;44.342;25.944;2022-07-31T06:26:59;100282.00;;;25.21;69.33
49122;BME280;35529;44.342;25.944;2022-07-31T06:29:25;100278.59;;;25.30;69.23
49122;BME280;35529;44.342;25.944;2022-07-31T06:31:53;100279.25;;;25.40;68.86
49122;BME280;35529;44.342;25.944;2022-07-31T06:34:19;100278.66;;;25.57;67.87
49122;BME280;35529;44.342;25.944;2022-07-31T06:36:45;100279.94;;;25.74;67.15
49122;BME280;35529;44.342;25.944;2022-07-31T06:39:12;100283.66;;;25.78;67.06
49122;BME280;35529;44.342;25.944;2022-07-31T06:41:38;100286.06;;;25.80;66.64
49122;BME280;35529;44.342;25.944;2022-07-31T06:44:12;100278.59;;;25.85;66.36
49122;BME280;35529;44.342;25.944;2022-07-31T06:46:38;100284.25;;;25.89;66.34
49122;BME280;35529;44.342;25.944;2022-07-31T06:49:05;100284.56;;;25.87;66.39
49122;BME280;35529;44.342;25.944;2022-07-31T06:51:31;100286.75;;;25.85;66.21
49122;BME280;35529;44.342;25.944;2022-07-31T06:53:58;100283.34;;;25.93;65.84
49122;BME280;35529;44.342;25.944;2022-07-31T06:56:24;100280.81;;;25.97;65.50
49122;BME280;35529;44.342;25.944;2022-07-31T06:58:50;100282.41;;;25.98;65.62
49122;BME280;35529;44.342;25.944;2022-07-31T07:01:17;100288.38;;;26.00;65.51
49122;BME280;35529;44.342;25.944;2022-07-31T07:03:43;100275.56;;;26.01;65.26
49122;BME280;35529;44.342;25.944;2022-07-31T07:06:09;100284.03;;;25.99;65.24
49122;BME280;35529;44.342;25.944;2022-07-31T07:08:36;100293.81;;;26.00;65.40
49122;BME280;35529;44.342;25.944;2022-07-31T07:11:02;100283.41;;;26.02;64.89
49122;BME280;35529;44.342;25.944;2022-07-31T07:13:28;100283.53;;;26.11;64.61
49122;BME280;35529;44.342;25.944;2022-07-31T07:15:54;100281.78;;;26.29;63.88
49122;BME280;35529;44.342;25.944;2022-07-31T07:18:20;100282.41;;;26.49;63.17
49122;BME280;35529;44.342;25.944;2022-07-31T07:20:50;100284.28;;;26.62;62.17
49122;BME280;35529;44.342;25.944;2022-07-31T07:23:17;100280.91;;;26.79;61.02
49122;BME280;35529;44.342;25.944;2022-07-31T07:25:43;100290.59;;;26.94;60.53
49122;BME280;35529;44.342;25.944;2022-07-31T07:28:09;100288.28;;;27.10;59.05
49122;BME280;35529;44.342;25.944;2022-07-31T07:30:36;100295.19;;;27.16;58.84
49122;BME280;35529;44.342;25.944;2022-07-31T07:33:02;100280.78;;;27.16;59.02
49122;BME280;35529;44.342;25.944;2022-07-31T07:35:30;100289.34;;;27.32;58.65
49122;BME280;35529;44.342;25.944;2022-07-31T07:37:57;100294.91;;;27.58;57.22
49122;BME280;35529;44.342;25.944;2022-07-31T07:40:23;100284.22;;;27.70;56.07
49122;BME280;35529;44.342;25.944;2022-07-31T07:42:50;100284.56;;;27.77;55.86
49122;BME280;35529;44.342;25.944;2022-07-31T07:45:16;100282.84;;;27.90;55.55
49122;BME280;35529;44.342;25.944;2022-07-31T07:47:42;100280.63;;;28.01;54.73
49122;BME280;35529;44.342;25.944;2022-07-31T07:50:08;100276.94;;;28.15;54.35
49122;BME280;35529;44.342;25.944;2022-07-31T07:52:35;100280.31;;;28.29;53.72
49122;BME280;35529;44.342;25.944;2022-07-31T07:55:02;100280.31;;;28.38;53.60
49122;BME280;35529;44.342;25.944;2022-07-31T07:57:29;100284.19;;;28.46;53.09
49122;BME280;35529;44.342;25.944;2022-07-31T07:59:57;100279.81;;;28.62;52.94
49122;BME280;35529;44.342;25.944;2022-07-31T08:02:24;100272.44;;;28.71;52.80
49122;BME280;35529;44.342;25.944;2022-07-31T08:04:50;100281.25;;;28.77;52.66
49122;BME280;35529;44.342;25.944;2022-07-31T08:07:16;100278.19;;;28.79;52.46
49122;BME280;35529;44.342;25.944;2022-07-31T08:09:43;100271.94;;;28.60;52.51
49122;BME280;35529;44.342;25.944;2022-07-31T08:12:09;100279.19;;;28.48;52.86
49122;BME280;35529;44.342;25.944;2022-07-31T08:14:35;100269.06;;;28.39;53.23
49122;BME280;35529;44.342;25.944;2022-07-31T08:17:01;100268.91;;;28.45;53.02
49122;BME280;35529;44.342;25.944;2022-07-31T08:19:27;100253.81;;;28.73;52.04
49122;BME280;35529;44.342;25.944;2022-07-31T08:21:54;100257.03;;;29.23;51.05
49122;BME280;35529;44.342;25.944;2022-07-31T08:24:20;100258.28;;;29.64;50.06
49122;BME280;35529;44.342;25.944;2022-07-31T08:26:46;100254.09;;;29.97;48.54
49122;BME280;35529;44.342;25.944;2022-07-31T08:29:31;100258.75;;;30.17;47.67
49122;BME280;35529;44.342;25.944;2022-07-31T08:31:57;100260.59;;;30.25;47.23
49122;BME280;35529;44.342;25.944;2022-07-31T08:34:23;100259.47;;;30.26;46.81
49122;BME280;35529;44.342;25.944;2022-07-31T08:36:49;100268.63;;;30.31;46.87
49122;BME280;35529;44.342;25.944;2022-07-31T08:39:16;100254.00;;;30.48;46.69
49122;BME280;35529;44.342;25.944;2022-07-31T08:41:42;100245.63;;;30.65;46.56
49122;BME280;35529;44.342;25.944;2022-07-31T08:44:08;100255.66;;;30.61;46.05
49122;BME280;35529;44.342;25.944;2022-07-31T08:46:38;100258.00;;;30.50;46.18
49122;BME280;35529;44.342;25.944;2022-07-31T08:49:06;100255.31;;;30.41;46.22
49122;BME280;35529;44.342;25.944;2022-07-31T08:51:38;100261.41;;;30.26;46.14
49122;BME280;35529;44.342;25.944;2022-07-31T08:54:05;100255.84;;;30.35;46.58
49122;BME280;35529;44.342;25.944;2022-07-31T08:56:35;100251.84;;;30.53;45.79
49122;BME280;35529;44.342;25.944;2022-07-31T08:59:02;100248.13;;;30.70;45.40
49122;BME280;35529;44.342;25.944;2022-07-31T09:01:29;100245.50;;;30.74;45.03
49122;BME280;35529;44.342;25.944;2022-07-31T09:03:57;100233.81;;;30.65;45.51
49122;BME280;35529;44.342;25.944;2022-07-31T09:06:24;100240.56;;;30.55;45.69
49122;BME280;35529;44.342;25.944;2022-07-31T09:08:50;100240.56;;;30.55;45.41
49122;BME280;35529;44.342;25.944;2022-07-31T09:11:16;100232.81;;;30.69;45.68
49122;BME280;35529;44.342;25.944;2022-07-31T09:13:56;100243.91;;;30.73;46.00
49122;BME280;35529;44.342;25.944;2022-07-31T09:16:22;100239.84;;;30.46;46.16
49122;BME280;35529;44.342;25.944;2022-07-31T09:18:55;100239.75;;;30.33;45.81
49122;BME280;35529;44.342;25.944;2022-07-31T09:21:22;100229.06;;;30.40;45.46
49122;BME280;35529;44.342;25.944;2022-07-31T09:23:48;100237.69;;;30.51;45.86
49122;BME280;35529;44.342;25.944;2022-07-31T09:26:14;100238.97;;;30.66;45.39
49122;BME280;35529;44.342;25.944;2022-07-31T09:28:41;100233.28;;;30.71;45.11
49122;BME280;35529;44.342;25.944;2022-07-31T09:31:08;100239.69;;;30.75;45.09
49122;BME280;35529;44.342;25.944;2022-07-31T09:33:35;100236.88;;;30.97;44.57
49122;BME280;35529;44.342;25.944;2022-07-31T09:36:03;100235.19;;;31.29;44.56
49122;BME280;35529;44.342;25.944;2022-07-31T09:38:34;100227.19;;;31.61;44.14
49122;BME280;35529;44.342;25.944;2022-07-31T09:41:08;100228.78;;;31.74;43.52
49122;BME280;35529;44.342;25.944;2022-07-31T09:43:35;100217.13;;;31.78;43.22
49122;BME280;35529;44.342;25.944;2022-07-31T09:46:02;100223.47;;;31.94;42.93
49122;BME280;35529;44.342;25.944;2022-07-31T09:48:29;100217.88;;;31.90;42.55
49122;BME280;35529;44.342;25.944;2022-07-31T09:50:56;100222.91;;;31.88;43.62
49122;BME280;35529;44.342;25.944;2022-07-31T09:53:22;100213.31;;;31.82;43.34
49122;BME280;35529;44.342;25.944;2022-07-31T09:55:49;100217.78;;;31.87;43.22
49122;BME280;35529;44.342;25.944;2022-07-31T09:58:16;100219.59;;;31.95;42.77
49122;BME280;35529;44.342;25.944;2022-07-31T10:00:42;100217.47;;;32.17;42.37
49122;BME280;35529;44.342;25.944;2022-07-31T10:03:08;100219.19;;;32.09;42.57
49122;BME280;35529;44.342;25.944;2022-07-31T10:05:40;100215.72;;;32.24;42.26
49122;BME280;35529;44.342;25.944;2022-07-31T10:08:06;100213.28;;;32.35;42.11
49122;BME280;35529;44.342;25.944;2022-07-31T10:10:33;100219.44;;;32.32;42.03
49122;BME280;35529;44.342;25.944;2022-07-31T10:13:00;100212.19;;;32.40;41.88
49122;BME280;35529;44.342;25.944;2022-07-31T10:15:28;100209.13;;;32.57;41.35
49122;BME280;35529;44.342;25.944;2022-07-31T10:17:54;100203.47;;;32.50;41.16
49122;BME280;35529;44.342;25.944;2022-07-31T10:20:22;100210.16;;;32.37;41.75
49122;BME280;35529;44.342;25.944;2022-07-31T10:22:52;100206.63;;;32.52;41.55
49122;BME280;35529;44.342;25.944;2022-07-31T10:25:23;100200.50;;;32.71;41.31
49122;BME280;35529;44.342;25.944;2022-07-31T10:27:50;100198.41;;;32.68;41.32
49122;BME280;35529;44.342;25.944;2022-07-31T10:30:18;100191.63;;;32.78;40.94
49122;BME280;35529;44.342;25.944;2022-07-31T10:32:45;100207.31;;;32.78;40.55
49122;BME280;35529;44.342;25.944;2022-07-31T10:35:11;100194.34;;;32.62;41.07
49122;BME280;35529;44.342;25.944;2022-07-31T10:40:22;100184.69;;;33.00;40.23
49122;BME280;35529;44.342;25.944;2022-07-31T10:45:16;100182.19;;;32.95;40.21
49122;BME280;35529;44.342;25.944;2022-07-31T10:47:54;100170.78;;;32.93;40.20
49122;BME280;35529;44.342;25.944;2022-07-31T10:50:21;100166.31;;;33.04;40.26
49122;BME280;35529;44.342;25.944;2022-07-31T10:52:47;100160.75;;;32.85;40.32
49122;BME280;35529;44.342;25.944;2022-07-31T10:55:18;100168.81;;;32.78;40.73
49122;BME280;35529;44.342;25.944;2022-07-31T10:57:50;100158.91;;;32.73;40.45
49122;BME280;35529;44.342;25.944;2022-07-31T11:00:17;100156.50;;;32.71;40.26
49122;BME280;35529;44.342;25.944;2022-07-31T11:02:44;100155.50;;;32.64;40.35
49122;BME280;35529;44.342;25.944;2022-07-31T11:07:40;100151.66;;;32.52;40.61
49122;BME280;35529;44.342;25.944;2022-07-31T11:10:17;100146.38;;;32.59;40.91
49122;BME280;35529;44.342;25.944;2022-07-31T11:12:43;100146.78;;;32.46;41.06
49122;BME280;35529;44.342;25.944;2022-07-31T11:15:19;100149.59;;;32.17;41.96
49122;BME280;35529;44.342;25.944;2022-07-31T11:17:45;100145.94;;;31.85;43.15
49122;BME280;35529;44.342;25.944;2022-07-31T11:20:19;100136.91;;;31.84;43.42
49122;BME280;35529;44.342;25.944;2022-07-31T11:22:56;100131.38;;;31.97;42.58
49122;BME280;35529;44.342;25.944;2022-07-31T11:25:23;100136.09;;;32.40;42.22
49122;BME280;35529;44.342;25.944;2022-07-31T11:27:49;100125.00;;;32.53;41.57
49122;BME280;35529;44.342;25.944;2022-07-31T11:30:15;100122.69;;;32.55;41.10
49122;BME280;35529;44.342;25.944;2022-07-31T11:32:51;100128.91;;;32.52;41.07
49122;BME280;35529;44.342;25.944;2022-07-31T11:35:28;100112.66;;;32.31;40.26
49122;BME280;35529;44.342;25.944;2022-07-31T11:37:54;100116.16;;;32.15;40.17
49122;BME280;35529;44.342;25.944;2022-07-31T11:40:21;100118.88;;;31.99;40.87
49122;BME280;35529;44.342;25.944;2022-07-31T11:42:47;100104.03;;;31.88;40.81
49122;BME280;35529;44.342;25.944;2022-07-31T11:45:14;100100.88;;;31.86;40.07
49122;BME280;35529;44.342;25.944;2022-07-31T11:47:41;100101.13;;;31.81;40.91
49122;BME280;35529;44.342;25.944;2022-07-31T11:50:07;100083.41;;;31.78;41.37
49122;BME280;35529;44.342;25.944;2022-07-31T11:52:35;100083.88;;;31.68;41.32
49122;BME280;35529;44.342;25.944;2022-07-31T11:55:03;100094.19;;;31.71;41.43
49122;BME280;35529;44.342;25.944;2022-07-31T11:57:32;100098.47;;;31.84;41.15
49122;BME280;35529;44.342;25.944;2022-07-31T12:00:05;100092.50;;;31.54;41.10
49122;BME280;35529;44.342;25.944;2022-07-31T12:02:31;100081.84;;;31.12;42.00
49122;BME280;35529;44.342;25.944;2022-07-31T12:05:00;100088.50;;;30.73;43.19
49122;BME280;35529;44.342;25.944;2022-07-31T12:07:27;100093.84;;;30.45;44.15
49122;BME280;35529;44.342;25.944;2022-07-31T12:09:54;100079.16;;;30.29;45.17
49122;BME280;35529;44.342;25.944;2022-07-31T12:12:20;100080.88;;;30.21;45.31
49122;BME280;35529;44.342;25.944;2022-07-31T12:14:47;100079.03;;;30.13;45.58
49122;BME280;35529;44.342;25.944;2022-07-31T12:17:20;100074.91;;;30.06;46.05
49122;BME280;35529;44.342;25.944;2022-07-31T12:19:46;100077.78;;;30.10;46.15
49122;BME280;35529;44.342;25.944;2022-07-31T12:22:17;100082.72;;;30.17;46.33
49122;BME280;35529;44.342;25.944;2022-07-31T12:24:45;100084.06;;;30.23;46.28
49122;BME280;35529;44.342;25.944;2022-07-31T12:27:14;100082.81;;;30.33;46.60
49122;BME280;35529;44.342;25.944;2022-07-31T12:29:41;100086.03;;;30.35;47.53
49122;BME280;35529;44.342;25.944;2022-07-31T12:32:07;100084.09;;;30.35;47.73
49122;BME280;35529;44.342;25.944;2022-07-31T12:34:35;100084.78;;;30.32;48.99
49122;BME280;35529;44.342;25.944;2022-07-31T12:39:35;100084.78;;;30.45;49.39
49122;BME280;35529;44.342;25.944;2022-07-31T12:42:02;100082.31;;;30.76;50.34
49122;BME280;35529;44.342;25.944;2022-07-31T12:44:29;100080.16;;;31.07;46.66
49122;BME280;35529;44.342;25.944;2022-07-31T12:46:55;100078.81;;;31.41;44.16
49122;BME280;35529;44.342;25.944;2022-07-31T12:49:21;100061.50;;;31.66;43.48
49122;BME280;35529;44.342;25.944;2022-07-31T12:51:48;100063.56;;;31.85;42.82
49122;BME280;35529;44.342;25.944;2022-07-31T12:54:14;100058.38;;;31.96;41.22
49122;BME280;35529;44.342;25.944;2022-07-31T12:56:41;100060.84;;;31.85;40.36
49122;BME280;35529;44.342;25.944;2022-07-31T12:59:08;100063.09;;;31.67;40.84